Terminal Aerodrome Forecast
Issued by NWS Wilmington, OH

Current Version | Previous Version | Text Only | Print | Product List | Glossary Off
Versions: 1 2 3 4 5 6 7 8 9 10 11 12 13 14 15 16 17

000
FTUS41 KILN 151909 AAA
TAFCMH
TAF AMD
KCMH 151909Z 1519/1618 27018G32KT P6SM VCSH BKN040
      TEMPO 1519/1521 5SM -SHRA OVC025
     FM152100 29014G28KT P6SM OVC025
      TEMPO 1521/1522 5SM -SHRA OVC015
     FM160000 32014G20KT P6SM OVC025
     FM160700 33008KT P6SM BKN035=

USA.gov is the U.S. government's official web portal to all federal, state and local government web resources and services.